Time;durP1;ratioP1;P1;durP2;ratioP2;P2;SDS_P1;SDS_P2;PMS_P1;PMS_P2;Temp;Humidity;BMP_temperature;BMP_pressure;BME280_temperature;BME280_humidity;BME280_pressure;Samples;Min_cycle;Max_cycle;Signal;HPM_P1;HPM_P2
2021/06/13 04:10:12;;;;;;;0.40;0.40;;;14.40;99.90;;;;;;6038153;23;20257;31
2021/06/13 04:12:42;;;;;;;0.50;0.50;;;14.30;99.90;;;;;;4918332;29;20226;-80
2021/06/13 04:15:11;;;;;;;0.50;0.50;;;14.30;99.90;;;;;;4919595;29;20211;-79
2021/06/13 04:17:40;;;;;;;0.60;0.60;;;14.30;99.90;;;;;;4919367;29;20203;-81
2021/06/13 04:20:11;;;;;;;0.60;0.60;;;14.30;99.90;;;;;;4919729;29;20265;-82
2021/06/13 04:22:40;;;;;;;0.50;0.50;;;14.40;99.90;;;;;;4897155;29;20599;-80
2021/06/13 04:25:09;;;;;;;0.40;0.40;;;14.30;99.90;;;;;;4902433;29;20241;-77
2021/06/13 04:27:38;;;;;;;0.50;0.50;;;14.40;99.90;;;;;;4918964;29;20207;-79
2021/06/13 04:30:09;;;;;;;0.50;0.50;;;14.30;99.90;;;;;;4918744;29;20231;-80
2021/06/13 04:32:37;;;;;;;0.40;0.40;;;14.50;99.90;;;;;;4919988;29;20190;-77
2021/06/13 04:35:06;;;;;;;0.50;0.50;;;14.50;99.90;;;;;;4919242;29;20635;-77
2021/06/13 04:37:34;;;;;;;0.40;0.40;;;14.50;99.90;;;;;;4919726;29;20207;-78
2021/06/13 04:40:02;;;;;;;0.50;0.50;;;14.40;99.90;;;;;;4919824;29;20281;-78
2021/06/13 04:42:30;;;;;;;0.50;0.50;;;14.40;99.90;;;;;;4919109;29;20247;-79
2021/06/13 04:44:59;;;;;;;0.40;0.40;;;14.20;99.90;;;;;;4919953;29;20238;-79
2021/06/13 04:47:28;;;;;;;0.50;0.50;;;14.20;99.90;;;;;;4919754;29;20207;-79
2021/06/13 04:49:57;;;;;;;0.60;0.60;;;14.20;99.90;;;;;;4918946;29;20242;-79
2021/06/13 04:52:29;;;;;;;0.50;0.50;;;14.20;99.90;;;;;;4919438;29;20233;-79
2021/06/13 04:55:19;;;;;;;0.60;0.60;;;14.30;99.90;;;;;;4919079;29;20211;-80
2021/06/13 04:57:56;;;;;;;0.60;0.60;;;14.30;99.90;;;;;;4919233;29;20226;-79
2021/06/13 05:00:24;;;;;;;0.50;0.50;;;14.50;99.90;;;;;;4920030;29;20210;-78
2021/06/13 05:02:53;;;;;;;0.40;0.40;;;14.50;99.90;;;;;;4919327;29;20576;-79
2021/06/13 05:05:21;;;;;;;0.50;0.50;;;14.60;99.90;;;;;;4918472;29;20211;-78
2021/06/13 05:07:49;;;;;;;0.50;0.50;;;14.70;99.90;;;;;;4918360;29;20235;-78
2021/06/13 05:10:17;;;;;;;0.40;0.40;;;14.70;99.90;;;;;;4918259;29;20569;-79
2021/06/13 05:12:50;;;;;;;0.50;0.50;;;14.70;99.90;;;;;;4918882;29;20189;-81
2021/06/13 05:15:19;;;;;;;0.50;0.50;;;14.70;99.90;;;;;;4917696;29;20231;-79
2021/06/13 05:17:47;;;;;;;0.50;0.50;;;14.80;99.90;;;;;;4920683;29;20206;-79
2021/06/13 05:20:17;;;;;;;0.50;0.50;;;14.80;99.90;;;;;;4927861;29;20187;-81
2021/06/13 05:22:53;;;;;;;0.50;0.50;;;14.80;99.90;;;;;;4928583;29;20234;-79
2021/06/13 05:25:22;;;;;;;0.50;0.50;;;14.60;99.90;;;;;;4922160;29;20214;-78
2021/06/13 05:27:50;;;;;;;0.60;0.60;;;14.50;99.90;;;;;;4925258;29;20203;-79
2021/06/13 05:30:19;;;;;;;0.50;0.50;;;14.60;99.90;;;;;;4921099;29;20218;-80
2021/06/13 05:32:47;;;;;;;0.50;0.50;;;14.60;99.90;;;;;;4922287;29;20207;-80
2021/06/13 05:35:17;;;;;;;0.50;0.50;;;14.60;99.90;;;;;;4924736;29;20211;-79
2021/06/13 05:37:45;;;;;;;0.50;0.50;;;14.80;99.90;;;;;;4926638;29;20684;-79
2021/06/13 05:40:14;;;;;;;0.50;0.50;;;14.80;99.90;;;;;;4924828;29;20207;-81
2021/06/13 05:42:42;;;;;;;0.60;0.60;;;14.70;99.90;;;;;;4923278;29;20626;-81
2021/06/13 05:45:12;;;;;;;0.40;0.40;;;14.90;99.90;;;;;;4922970;29;20274;-81
2021/06/13 05:47:42;;;;;;;0.50;0.50;;;15.10;99.90;;;;;;4925381;29;20191;-79
2021/06/13 05:50:12;;;;;;;0.40;0.40;;;14.90;99.90;;;;;;4922932;29;20732;-82
2021/06/13 05:52:42;;;;;;;0.47;0.47;;;15.10;99.90;;;;;;4925083;29;20207;-80
2021/06/13 05:55:12;;;;;;;0.50;0.50;;;15.10;99.90;;;;;;4924161;29;20627;-80
2021/06/13 05:57:40;;;;;;;0.50;0.50;;;15.30;99.90;;;;;;4924281;29;20759;-80
2021/06/13 06:00:11;;;;;;;0.50;0.50;;;15.10;99.90;;;;;;4925871;29;20235;-78
2021/06/13 06:02:39;;;;;;;0.50;0.50;;;15.30;99.90;;;;;;4924042;29;20227;-80
2021/06/13 06:05:09;;;;;;;0.40;0.40;;;15.40;99.90;;;;;;4922813;29;20235;-78
2021/06/13 06:07:37;;;;;;;0.40;0.40;;;15.30;99.90;;;;;;4907099;29;20212;-79
2021/06/13 06:10:08;;;;;;;0.50;0.50;;;15.20;99.90;;;;;;4906046;29;20195;-79
2021/06/13 06:12:37;;;;;;;0.50;0.50;;;15.10;99.90;;;;;;4904824;29;20212;-78
2021/06/13 06:15:06;;;;;;;0.50;0.50;;;15.20;99.90;;;;;;4905255;29;20652;-80
2021/06/13 06:17:38;;;;;;;0.50;0.50;;;15.20;99.90;;;;;;4903427;29;20196;-78
2021/06/13 06:20:07;;;;;;;0.50;0.50;;;15.30;99.90;;;;;;4903174;29;20259;-77
2021/06/13 06:22:35;;;;;;;0.40;0.40;;;15.30;99.90;;;;;;4902440;29;20230;-79
2021/06/13 06:25:04;;;;;;;0.50;0.50;;;15.40;99.90;;;;;;4905475;29;20211;-78
2021/06/13 06:27:33;;;;;;;0.40;0.40;;;15.20;99.90;;;;;;4906051;29;20211;-77
2021/06/13 06:30:01;;;;;;;0.50;0.50;;;15.30;99.90;;;;;;4906272;29;20246;-79
2021/06/13 06:32:29;;;;;;;0.40;0.40;;;15.10;99.90;;;;;;4904053;29;20223;-76
2021/06/13 06:34:57;;;;;;;0.40;0.40;;;15.00;99.90;;;;;;4907276;29;20203;-81
2021/06/13 06:37:25;;;;;;;0.60;0.60;;;15.20;99.90;;;;;;4912072;29;20660;-82
2021/06/13 06:39:53;;;;;;;0.40;0.40;;;15.30;99.90;;;;;;4908916;29;20239;-82
2021/06/13 06:42:21;;;;;;;0.50;0.50;;;15.30;99.90;;;;;;4905966;29;20239;-80
2021/06/13 06:44:53;;;;;;;0.50;0.50;;;15.30;99.90;;;;;;4905432;29;20217;-81
2021/06/13 06:47:21;;;;;;;0.50;0.50;;;15.20;99.90;;;;;;4905065;29;20661;-80
2021/06/13 06:49:49;;;;;;;0.40;0.40;;;15.00;99.90;;;;;;4904326;29;20255;-77
2021/06/13 06:52:17;;;;;;;0.50;0.50;;;14.90;99.90;;;;;;4904821;29;20692;-80
2021/06/13 06:54:46;;;;;;;0.40;0.40;;;15.00;99.90;;;;;;4904137;29;20264;-78
2021/06/13 06:57:14;;;;;;;0.50;0.50;;;15.20;99.90;;;;;;4901068;29;20203;-79
2021/06/13 06:59:42;;;;;;;0.52;0.52;;;15.10;99.90;;;;;;4894727;29;20259;-80
2021/06/13 07:02:12;;;;;;;0.50;0.50;;;15.20;99.90;;;;;;4887911;29;20298;-74
2021/06/13 07:04:40;;;;;;;0.60;0.60;;;15.10;99.90;;;;;;4888835;29;20220;-76
2021/06/13 07:07:08;;;;;;;0.60;0.60;;;15.10;99.90;;;;;;4891448;29;20199;-77
2021/06/13 07:09:36;;;;;;;0.50;0.50;;;15.00;99.90;;;;;;4894034;29;20203;-78
2021/06/13 07:12:05;;;;;;;0.60;0.60;;;15.10;99.90;;;;;;4892219;29;20280;-77
2021/06/13 07:14:33;;;;;;;0.50;0.50;;;15.20;99.90;;;;;;4893314;29;20237;-77
2021/06/13 07:17:00;;;;;;;0.50;0.50;;;15.40;99.90;;;;;;4894421;29;20200;-77
2021/06/13 07:19:30;;;;;;;0.43;0.43;;;15.60;99.90;;;;;;4894329;29;20232;-78
2021/06/13 07:21:57;;;;;;;0.50;0.50;;;15.60;99.90;;;;;;4894804;29;20253;-77
2021/06/13 07:24:25;;;;;;;0.50;0.50;;;15.50;99.90;;;;;;4897229;29;20208;-77
2021/06/13 07:26:53;;;;;;;0.50;0.50;;;15.60;99.90;;;;;;4894543;29;20200;-77
2021/06/13 07:29:21;;;;;;;0.40;0.40;;;16.30;99.90;;;;;;4896024;29;20196;-77
2021/06/13 07:31:49;;;;;;;0.40;0.40;;;15.60;99.90;;;;;;4896132;29;20220;-77
2021/06/13 07:34:17;;;;;;;0.40;0.40;;;15.50;99.90;;;;;;4889170;29;20228;-78
2021/06/13 07:36:46;;;;;;;0.50;0.50;;;15.50;99.90;;;;;;4891328;29;20207;-77
2021/06/13 07:39:14;;;;;;;0.50;0.50;;;15.60;99.90;;;;;;4889617;29;20208;-79
2021/06/13 07:41:42;;;;;;;0.40;0.40;;;15.50;99.90;;;;;;4892836;29;20251;-77
2021/06/13 07:44:10;;;;;;;0.50;0.50;;;15.50;99.90;;;;;;4891128;29;20742;-78
2021/06/13 07:46:39;;;;;;;0.40;0.40;;;15.70;99.90;;;;;;4888294;29;20654;-79
2021/06/13 07:49:07;;;;;;;0.40;0.40;;;15.40;99.90;;;;;;4884895;29;20263;-78
2021/06/13 07:51:35;;;;;;;0.52;0.52;;;15.50;99.90;;;;;;4883114;29;20232;-79
2021/06/13 07:54:04;;;;;;;0.60;0.60;;;15.60;99.90;;;;;;4898029;29;20207;-79
2021/06/13 07:56:32;;;;;;;0.50;0.50;;;15.60;99.90;;;;;;4896129;29;20262;-80
2021/06/13 07:59:00;;;;;;;0.50;0.50;;;15.40;99.90;;;;;;4904981;29;20203;-79
2021/06/13 08:01:28;;;;;;;0.50;0.50;;;15.40;99.90;;;;;;4894811;29;20703;-78
2021/06/13 08:03:56;;;;;;;0.50;0.50;;;15.50;99.90;;;;;;4896474;29;20294;-83
2021/06/13 08:06:24;;;;;;;0.40;0.40;;;15.60;99.40;;;;;;4888191;29;20601;-82
2021/06/13 08:08:52;;;;;;;0.50;0.50;;;15.80;99.70;;;;;;4903550;29;20271;-81
2021/06/13 08:11:21;;;;;;;0.40;0.40;;;16.20;99.60;;;;;;4898624;29;20700;-82
2021/06/13 08:13:49;;;;;;;0.60;0.60;;;16.20;98.80;;;;;;4897965;29;20670;-82
2021/06/13 08:16:16;;;;;;;0.50;0.50;;;16.30;98.70;;;;;;4900277;29;20278;-80
2021/06/13 08:18:44;;;;;;;0.40;0.40;;;16.10;98.40;;;;;;4892851;29;20225;-80
2021/06/13 08:21:12;;;;;;;0.50;0.50;;;16.20;99.10;;;;;;4901218;29;20231;-80
2021/06/13 08:23:40;;;;;;;0.50;0.50;;;16.20;98.40;;;;;;4884473;29;20292;-81
2021/06/13 08:26:08;;;;;;;0.40;0.40;;;16.20;98.90;;;;;;4901195;29;20211;-80
2021/06/13 08:28:37;;;;;;;0.40;0.40;;;16.50;98.30;;;;;;4888819;29;20283;-81
2021/06/13 08:31:05;;;;;;;0.40;0.40;;;16.50;98.30;;;;;;4896825;29;20594;-81
2021/06/13 08:33:34;;;;;;;0.50;0.50;;;16.50;97.90;;;;;;4895814;29;20204;-81
2021/06/13 08:36:02;;;;;;;0.40;0.40;;;16.20;98.00;;;;;;4897930;29;20248;-80
2021/06/13 08:38:29;;;;;;;0.40;0.40;;;16.10;98.70;;;;;;4893329;29;20203;-80
2021/06/13 08:40:57;;;;;;;0.40;0.40;;;16.00;99.10;;;;;;4892802;29;20231;-79
2021/06/13 08:43:26;;;;;;;0.50;0.50;;;16.00;99.40;;;;;;4891812;29;20251;-82
2021/06/13 08:45:59;;;;;;;0.50;0.50;;;15.50;99.20;;;;;;4887857;29;20256;-80
2021/06/13 08:48:28;;;;;;;0.50;0.50;;;15.70;99.90;;;;;;4890467;29;20216;-78
2021/06/13 08:50:57;;;;;;;0.50;0.50;;;15.80;99.10;;;;;;4892678;29;20641;-81
2021/06/13 08:53:26;;;;;;;0.50;0.50;;;16.00;98.50;;;;;;4890130;29;20263;-81
2021/06/13 08:55:54;;;;;;;0.40;0.40;;;16.20;98.30;;;;;;4889904;29;20584;-78
2021/06/13 08:58:22;;;;;;;0.50;0.50;;;16.10;98.00;;;;;;4894374;29;20204;-81
2021/06/13 09:00:51;;;;;;;0.40;0.40;;;16.30;97.80;;;;;;4889858;29;20224;-78
2021/06/13 09:03:20;;;;;;;0.40;0.40;;;16.20;97.50;;;;;;4890306;29;20223;-80
2021/06/13 09:05:48;;;;;;;0.50;0.50;;;16.10;97.70;;;;;;4883296;29;20212;-78
2021/06/13 09:08:17;;;;;;;0.50;0.50;;;16.10;97.80;;;;;;4894114;29;20211;-80
2021/06/13 09:10:46;;;;;;;0.40;0.40;;;16.30;97.60;;;;;;4897719;29;20235;-75
2021/06/13 09:13:16;;;;;;;0.50;0.50;;;16.40;97.20;;;;;;4891468;29;20251;-76
2021/06/13 09:15:47;;;;;;;0.50;0.50;;;16.40;96.60;;;;;;4894207;29;20203;-78
2021/06/13 09:18:37;;;;;;;0.40;0.40;;;16.30;96.20;;;;;;4894357;29;20266;-80
2021/06/13 09:21:07;;;;;;;0.50;0.50;;;16.30;96.70;;;;;;4903089;29;20255;-79
2021/06/13 09:23:38;;;;;;;0.50;0.50;;;16.20;96.80;;;;;;4904461;29;20227;-78
2021/06/13 09:26:08;;;;;;;0.40;0.40;;;16.20;96.70;;;;;;4902179;29;20222;-78
2021/06/13 09:28:37;;;;;;;0.50;0.50;;;16.40;96.50;;;;;;4901869;29;20207;-78
2021/06/13 09:31:07;;;;;;;0.50;0.50;;;16.40;96.10;;;;;;4901628;29;20273;-79
2021/06/13 09:33:37;;;;;;;0.50;0.50;;;16.50;96.30;;;;;;4902175;29;20207;-77
2021/06/13 09:36:07;;;;;;;0.50;0.50;;;16.60;96.60;;;;;;4896801;29;20203;-78
2021/06/13 09:38:37;;;;;;;0.40;0.40;;;16.70;96.20;;;;;;4897016;29;20199;-77
2021/06/13 09:41:09;;;;;;;0.40;0.40;;;16.80;95.80;;;;;;4887357;29;20649;-77
2021/06/13 09:43:39;;;;;;;0.40;0.40;;;16.90;96.10;;;;;;4883754;29;20212;-79
2021/06/13 09:46:09;;;;;;;0.50;0.50;;;17.10;95.10;;;;;;4883079;29;20272;-77
2021/06/13 09:48:41;;;;;;;0.40;0.40;;;17.10;94.40;;;;;;4883417;29;20204;-75
2021/06/13 09:51:11;;;;;;;0.40;0.40;;;16.90;95.00;;;;;;4879321;29;20228;-75
2021/06/13 09:53:44;;;;;;;0.40;0.40;;;17.00;94.70;;;;;;4881231;29;20188;-77
2021/06/13 09:56:25;;;;;;;0.50;0.50;;;16.90;94.30;;;;;;4887279;29;20203;-80
2021/06/13 09:59:02;;;;;;;0.40;0.40;;;17.00;95.70;;;;;;4883019;29;20287;-78
2021/06/13 10:01:33;;;;;;;0.40;0.40;;;16.50;94.90;;;;;;4897326;29;20227;-79
2021/06/13 10:04:03;;;;;;;0.50;0.50;;;16.50;95.60;;;;;;4902390;29;20261;-79
2021/06/13 10:06:33;;;;;;;0.40;0.40;;;16.70;94.60;;;;;;4902822;29;20272;-80
2021/06/13 10:09:01;;;;;;;0.40;0.40;;;16.80;94.70;;;;;;4904094;29;20290;-77
2021/06/13 10:11:29;;;;;;;0.40;0.40;;;17.00;95.40;;;;;;4902309;29;20618;-76
2021/06/13 10:13:59;;;;;;;0.50;0.50;;;17.40;94.60;;;;;;4900943;29;20267;-76
2021/06/13 10:16:38;;;;;;;0.40;0.40;;;17.40;94.30;;;;;;4899793;29;20215;-77
2021/06/13 10:19:12;;;;;;;0.40;0.40;;;17.30;93.30;;;;;;4899981;29;20270;-79
2021/06/13 10:21:43;;;;;;;0.50;0.50;;;17.00;94.40;;;;;;4897599;29;20243;-77
2021/06/13 10:24:13;;;;;;;0.30;0.30;;;17.10;94.20;;;;;;4938757;23;20225;-72
2021/06/13 10:26:44;;;;;;;0.40;0.40;;;16.90;93.80;;;;;;4956077;29;20283;-73
2021/06/13 10:29:14;;;;;;;0.40;0.40;;;16.70;93.30;;;;;;4950889;29;20197;-73
2021/06/13 10:31:44;;;;;;;0.40;0.40;;;16.40;93.40;;;;;;4949282;29;20572;-73
2021/06/13 10:34:14;;;;;;;0.40;0.40;;;16.40;94.00;;;;;;4949667;29;20222;-74
2021/06/13 10:36:43;;;;;;;0.50;0.50;;;16.50;93.80;;;;;;4951952;29;20210;-73
2021/06/13 10:39:12;;;;;;;0.50;0.50;;;16.40;94.10;;;;;;4947436;29;20257;-74
2021/06/13 10:41:41;;;;;;;0.50;0.50;;;16.50;94.00;;;;;;4947990;29;20201;-73
2021/06/13 10:44:12;;;;;;;0.40;0.40;;;16.60;94.10;;;;;;4947455;29;20222;-73
2021/06/13 10:46:41;;;;;;;0.50;0.50;;;16.40;94.40;;;;;;4945973;29;20224;-71
2021/06/13 10:49:30;;;;;;;0.40;0.40;;;16.70;94.70;;;;;;4946294;29;20198;-72
2021/06/13 10:52:10;;;;;;;0.40;0.40;;;16.80;94.40;;;;;;4947348;29;20239;-71
2021/06/13 10:54:42;;;;;;;0.40;0.40;;;16.80;94.10;;;;;;4947443;29;20687;-73
2021/06/13 10:57:39;;;;;;;0.40;0.40;;;16.70;94.40;;;;;;4946961;29;20729;-73
2021/06/13 11:00:31;;;;;;;0.40;0.40;;;16.60;93.90;;;;;;4930971;29;20201;-73
2021/06/13 11:03:00;;;;;;;0.50;0.50;;;16.60;94.10;;;;;;4946346;29;20205;-72
2021/06/13 11:05:47;;;;;;;0.50;0.50;;;16.70;94.30;;;;;;4947452;29;20217;-73
2021/06/13 11:08:17;;;;;;;0.45;0.45;;;16.80;94.10;;;;;;4947608;29;20198;-73
2021/06/13 11:10:47;;;;;;;0.50;0.50;;;16.90;94.40;;;;;;4944787;29;20614;-74
2021/06/13 11:13:29;;;;;;;0.40;0.40;;;16.30;93.60;;;;;;4946966;29;20201;-74
2021/06/13 11:16:00;;;;;;;0.38;0.38;;;16.80;93.10;;;;;;4944768;29;20769;-75
2021/06/13 11:18:31;;;;;;;0.40;0.40;;;19.30;93.80;;;;;;4944989;29;20248;-74
2021/06/13 11:21:07;;;;;;;0.40;0.40;;;16.60;92.80;;;;;;4944768;29;20209;-74
2021/06/13 11:23:55;;;;;;;0.40;0.40;;;17.00;93.40;;;;;;4946824;29;20237;-73
2021/06/13 11:26:40;;;;;;;0.30;0.30;;;17.00;93.40;;;;;;4938659;29;20560;-75
2021/06/13 11:29:10;;;;;;;0.30;0.30;;;17.20;92.90;;;;;;4937494;29;20210;-74
2021/06/13 11:31:53;;;;;;;0.30;0.30;;;17.40;92.80;;;;;;4938402;29;20206;-73
2021/06/13 11:34:23;;;;;;;0.40;0.40;;;17.00;93.30;;;;;;4939359;29;20250;-74
2021/06/13 11:36:52;;;;;;;0.40;0.40;;;17.50;92.80;;;;;;4937567;29;20253;-74
2021/06/13 11:39:28;;;;;;;0.30;0.30;;;17.40;93.10;;;;;;4937466;29;20202;-74
2021/06/13 11:42:17;;;;;;;0.30;0.30;;;16.80;92.90;;;;;;4935565;29;20208;-73
2021/06/13 11:44:53;;;;;;;0.47;0.47;;;17.70;93.00;;;;;;4938001;29;20237;-73
2021/06/13 11:47:35;;;;;;;0.30;0.30;;;17.60;91.50;;;;;;4935712;29;20209;-74
2021/06/13 11:50:09;;;;;;;0.40;0.40;;;17.50;91.60;;;;;;4939234;29;20248;-74
2021/06/13 11:53:06;;;;;;;0.50;0.50;;;17.50;91.50;;;;;;4935237;29;20224;-74
2021/06/13 11:56:01;;;;;;;0.40;0.40;;;17.60;91.50;;;;;;4935388;29;20262;-73
2021/06/13 11:58:33;;;;;;;0.30;0.30;;;17.50;92.10;;;;;;4901962;29;20629;-74
2021/06/13 12:01:03;;;;;;;0.30;0.30;;;17.80;92.30;;;;;;4950346;29;20205;-74
2021/06/13 12:03:32;;;;;;;0.50;0.50;;;17.80;91.00;;;;;;4950834;29;20226;-74
2021/06/13 12:06:14;;;;;;;0.50;0.50;;;17.80;91.40;;;;;;4939205;29;20590;-77
2021/06/13 12:08:44;;;;;;;0.38;0.38;;;18.00;91.30;;;;;;4938149;29;20197;-76
2021/06/13 12:11:42;;;;;;;0.30;0.30;;;18.20;90.90;;;;;;4947037;29;20193;-76
2021/06/13 12:14:21;;;;;;;0.40;0.40;;;18.20;91.30;;;;;;4941674;29;20747;-76
2021/06/13 12:16:50;;;;;;;0.40;0.40;;;18.30;91.10;;;;;;4950130;29;20252;-75
2021/06/13 12:19:36;;;;;;;0.30;0.30;;;18.00;90.40;;;;;;4954964;29;20248;-76
2021/06/13 12:22:29;;;;;;;0.40;0.40;;;18.00;90.40;;;;;;4958444;29;20279;-75
2021/06/13 12:27:48;;;;;;;0.40;0.40;;;18.00;91.20;;;;;;4955044;29;20264;-75
2021/06/13 12:30:19;;;;;;;0.40;0.40;;;18.00;91.10;;;;;;4953780;29;20673;-75
2021/06/13 12:32:54;;;;;;;0.40;0.40;;;17.90;90.50;;;;;;4954824;29;20260;-75
2021/06/13 12:35:25;;;;;;;0.40;0.40;;;17.80;90.80;;;;;;4954484;29;20217;-74
2021/06/13 12:38:01;;;;;;;0.30;0.30;;;17.70;90.90;;;;;;4955608;29;20256;-74
2021/06/13 12:40:31;;;;;;;0.30;0.30;;;17.80;91.40;;;;;;4955878;29;20260;-75
2021/06/13 12:42:59;;;;;;;0.40;0.40;;;17.80;90.70;;;;;;4960191;28;20252;-75
2021/06/13 12:45:27;;;;;;;0.40;0.40;;;17.60;91.00;;;;;;4960674;29;20646;-74
2021/06/13 12:47:57;;;;;;;0.30;0.30;;;18.10;90.90;;;;;;4960934;29;20276;-74
2021/06/13 12:50:28;;;;;;;0.30;0.30;;;17.70;90.70;;;;;;4959845;29;20205;-74
2021/06/13 12:53:01;;;;;;;0.30;0.30;;;17.80;90.90;;;;;;4952554;28;20236;-69
2021/06/13 12:55:36;;;;;;;0.30;0.30;;;17.60;91.10;;;;;;4952467;28;20189;-69
2021/06/13 12:58:04;;;;;;;0.30;0.30;;;18.20;91.40;;;;;;4943716;29;20202;-68
2021/06/13 13:00:33;;;;;;;0.40;0.40;;;18.20;90.80;;;;;;4937897;29;20206;-69
2021/06/13 13:03:09;;;;;;;0.30;0.30;;;18.50;90.10;;;;;;4937922;29;20206;-69
2021/06/13 13:05:38;;;;;;;0.30;0.30;;;19.10;89.10;;;;;;4937644;29;20229;-73
2021/06/13 13:08:17;;;;;;;0.30;0.30;;;19.20;86.50;;;;;;4940913;29;20633;-82
2021/06/13 13:10:58;;;;;;;0.30;0.30;;;18.90;86.90;;;;;;4942186;29;20229;-77
2021/06/13 13:13:27;;;;;;;0.30;0.30;;;18.80;87.90;;;;;;4941973;29;20238;-77
2021/06/13 13:15:58;;;;;;;0.30;0.30;;;18.80;89.40;;;;;;4941505;29;20209;-78
2021/06/13 13:18:26;;;;;;;0.30;0.30;;;19.00;88.20;;;;;;4940992;29;20579;-74
2021/06/13 13:20:55;;;;;;;0.40;0.40;;;18.80;88.30;;;;;;4940344;29;20213;-77
2021/06/13 13:23:26;;;;;;;0.40;0.40;;;19.00;87.80;;;;;;4943428;29;20230;-77
2021/06/13 13:26:02;;;;;;;0.30;0.30;;;19.60;88.80;;;;;;4941554;29;20222;-77
2021/06/13 13:28:33;;;;;;;0.40;0.40;;;19.00;85.40;;;;;;4943571;29;20237;-77
2021/06/13 13:31:14;;;;;;;0.30;0.30;;;19.20;84.10;;;;;;4927353;29;20238;-77
2021/06/13 13:33:43;;;;;;;0.30;0.30;;;19.30;85.90;;;;;;4927827;29;20238;-78
2021/06/13 13:36:14;;;;;;;0.30;0.30;;;20.00;84.80;;;;;;4926846;29;20210;-79
2021/06/13 13:38:44;;;;;;;0.30;0.30;;;19.10;84.50;;;;;;4929839;29;20187;-77
2021/06/13 13:41:16;;;;;;;0.30;0.30;;;19.40;85.90;;;;;;4929519;29;20211;-79
2021/06/13 13:43:56;;;;;;;0.30;0.30;;;19.60;84.70;;;;;;4923804;29;20696;-76
2021/06/13 13:46:29;;;;;;;0.30;0.30;;;19.70;83.80;;;;;;4920506;29;20274;-77
2021/06/13 13:48:59;;;;;;;0.30;0.30;;;19.30;84.40;;;;;;4919576;29;20211;-76
2021/06/13 13:51:29;;;;;;;0.30;0.30;;;19.20;86.70;;;;;;4920341;29;20221;-75
2021/06/13 13:53:57;;;;;;;0.30;0.30;;;19.00;86.00;;;;;;4919652;29;20231;-75
2021/06/13 13:56:27;;;;;;;0.40;0.40;;;18.40;87.50;;;;;;4920629;29;20277;-75
2021/06/13 13:58:55;;;;;;;0.30;0.30;;;17.90;88.90;;;;;;4920111;29;20206;-74
2021/06/13 14:01:23;;;;;;;0.40;0.40;;;18.60;89.70;;;;;;4920000;29;20230;-75
2021/06/13 14:03:52;;;;;;;0.30;0.30;;;17.70;90.00;;;;;;4919600;29;20253;-74
2021/06/13 14:06:20;;;;;;;0.30;0.30;;;17.60;89.70;;;;;;4920974;29;20223;-74
2021/06/13 14:08:51;;;;;;;0.30;0.30;;;18.00;90.10;;;;;;4922830;29;20234;-75
2021/06/13 14:11:20;;;;;;;0.40;0.40;;;18.00;90.00;;;;;;4931904;29;20265;-78
2021/06/13 14:13:49;;;;;;;0.35;0.35;;;18.20;90.40;;;;;;4923545;29;20231;-77
2021/06/13 14:16:17;;;;;;;0.35;0.35;;;18.30;89.30;;;;;;4922740;29;20202;-79
2021/06/13 14:18:45;;;;;;;0.40;0.40;;;18.30;89.60;;;;;;4920182;29;20203;-76
2021/06/13 14:21:14;;;;;;;0.40;0.40;;;18.60;89.80;;;;;;4921626;29;20262;-78
2021/06/13 14:23:42;;;;;;;0.30;0.30;;;20.50;89.50;;;;;;4932885;29;20274;-77
2021/06/13 14:26:11;;;;;;;0.30;0.30;;;19.10;88.00;;;;;;4929999;29;20218;-79
2021/06/13 14:28:39;;;;;;;0.30;0.30;;;19.10;86.90;;;;;;4928968;29;20254;-77
2021/06/13 14:31:08;;;;;;;0.30;0.30;;;19.50;85.70;;;;;;4931052;29;20684;-76
2021/06/13 14:33:36;;;;;;;0.38;0.38;;;19.90;85.60;;;;;;4930610;29;20218;-75
2021/06/13 14:36:08;;;;;;;0.30;0.30;;;20.10;84.70;;;;;;4934985;29;20194;-79
2021/06/13 14:38:36;;;;;;;0.30;0.30;;;20.30;84.60;;;;;;4922715;29;20222;-79
2021/06/13 14:41:05;;;;;;;0.30;0.30;;;20.00;84.20;;;;;;4934670;29;20199;-75
2021/06/13 14:43:33;;;;;;;0.30;0.30;;;20.00;82.70;;;;;;4929388;29;20229;-76
2021/06/13 14:46:01;;;;;;;0.30;0.30;;;19.80;84.50;;;;;;4940083;29;20226;-76
2021/06/13 14:48:31;;;;;;;0.30;0.30;;;21.00;84.40;;;;;;4942744;29;20210;-76
2021/06/13 14:50:58;;;;;;;0.40;0.40;;;19.70;84.20;;;;;;4938878;29;20206;-76
2021/06/13 14:53:27;;;;;;;0.30;0.30;;;;;;;;;;4940002;29;20229;-76
2021/06/13 14:55:55;;;;;;;0.30;0.30;;;19.60;82.40;;;;;;4941139;29;20202;-77
2021/06/13 14:58:23;;;;;;;0.30;0.30;;;18.90;84.90;;;;;;4919907;29;20206;-78
2021/06/13 15:00:51;;;;;;;0.30;0.30;;;18.70;84.40;;;;;;4920586;29;20211;-77
2021/06/13 15:03:21;;;;;;;0.30;0.30;;;20.90;85.60;;;;;;4921365;29;20257;-75
2021/06/13 15:05:51;;;;;;;0.30;0.30;;;19.90;83.70;;;;;;4924011;29;20238;-77
2021/06/13 15:08:18;;;;;;;0.30;0.30;;;19.60;84.20;;;;;;4931362;29;20203;-76
2021/06/13 15:10:46;;;;;;;0.30;0.30;;;19.40;85.70;;;;;;4927938;29;20258;-77
2021/06/13 15:13:14;;;;;;;0.40;0.40;;;20.00;87.40;;;;;;4929149;29;20281;-75
2021/06/13 15:15:43;;;;;;;0.40;0.40;;;19.30;88.20;;;;;;4939673;29;20281;-77
2021/06/13 15:18:11;;;;;;;0.40;0.40;;;19.00;88.20;;;;;;4940470;29;20209;-77
2021/06/13 15:20:42;;;;;;;0.70;0.70;;;20.60;87.40;;;;;;4940316;29;20197;-77
2021/06/13 15:23:12;;;;;;;0.30;0.30;;;20.70;83.80;;;;;;4936987;29;20552;-71
2021/06/13 15:25:40;;;;;;;0.40;0.40;;;20.30;83.20;;;;;;4932350;29;20249;-71
2021/06/13 15:28:08;;;;;;;0.30;0.30;;;20.40;82.80;;;;;;4925488;29;20257;-70
2021/06/13 15:30:37;;;;;;;0.40;0.40;;;20.50;81.80;;;;;;4925230;29;20214;-72
2021/06/13 15:33:07;;;;;;;0.30;0.30;;;20.30;82.60;;;;;;4925063;29;20206;-70
2021/06/13 15:35:36;;;;;;;0.40;0.40;;;20.00;82.30;;;;;;4929880;29;20202;-70
2021/06/13 15:38:04;;;;;;;0.30;0.30;;;19.70;83.20;;;;;;4922399;29;20262;-74
2021/06/13 15:40:33;;;;;;;0.40;0.40;;;19.60;84.30;;;;;;4929818;29;20587;-75
2021/06/13 15:43:04;;;;;;;0.30;0.30;;;19.60;84.30;;;;;;4930295;29;20206;-75
2021/06/13 15:45:32;;;;;;;0.30;0.30;;;19.70;82.70;;;;;;4939775;29;20205;-76
2021/06/13 15:48:02;;;;;;;0.30;0.30;;;19.60;82.80;;;;;;4936255;29;20218;-76
2021/06/13 15:50:30;;;;;;;0.30;0.30;;;19.90;84.10;;;;;;4941823;29;20226;-77
2021/06/13 15:52:58;;;;;;;0.30;0.30;;;20.00;82.40;;;;;;4939094;29;20202;-78
2021/06/13 15:55:33;;;;;;;0.40;0.40;;;;;;;;;;4942679;29;20237;-77
2021/06/13 15:58:04;;;;;;;0.50;0.50;;;19.80;82.20;;;;;;4941909;29;20288;-77
2021/06/13 16:00:32;;;;;;;0.47;0.47;;;;;;;;;;4940424;29;20261;-74
2021/06/13 16:03:00;;;;;;;0.30;0.30;;;20.10;81.70;;;;;;4939173;29;20599;-78
2021/06/13 16:05:38;;;;;;;0.30;0.30;;;20.10;81.30;;;;;;4941765;29;20225;-78
2021/06/13 16:08:08;;;;;;;0.40;0.40;;;20.20;81.30;;;;;;4941228;29;20289;-76
2021/06/13 16:10:36;;;;;;;0.30;0.30;;;20.00;81.80;;;;;;4933032;29;20286;-78
2021/06/13 16:13:07;;;;;;;0.30;0.30;;;20.30;92.80;;;;;;4919385;29;20211;-77
2021/06/13 16:15:34;;;;;;;0.30;0.30;;;20.30;82.40;;;;;;4919503;29;20214;-77
2021/06/13 16:18:05;;;;;;;0.30;0.30;;;20.20;82.60;;;;;;4924653;29;20293;-77
2021/06/13 16:20:34;;;;;;;0.30;0.30;;;;;;;;;;4939982;29;20210;-77
2021/06/13 16:23:03;;;;;;;0.40;0.40;;;19.70;82.40;;;;;;4947642;29;20627;-77
2021/06/13 16:26:01;;;;;;;0.30;0.30;;;19.70;83.10;;;;;;4959474;23;20285;-78
2021/06/13 16:28:31;;;;;;;0.30;0.30;;;18.70;83.70;;;;;;4935224;29;20236;-78
2021/06/13 16:30:59;;;;;;;0.40;0.40;;;19.60;84.60;;;;;;4939510;29;20202;-79
2021/06/13 16:33:27;;;;;;;0.30;0.30;;;19.40;83.70;;;;;;4921545;29;20617;-80
2021/06/13 16:35:55;;;;;;;0.40;0.40;;;19.60;84.00;;;;;;4928558;29;20226;-78
2021/06/13 16:38:23;;;;;;;0.30;0.30;;;19.50;83.60;;;;;;4917122;29;20206;-79
2021/06/13 16:40:54;;;;;;;0.30;0.30;;;19.50;83.90;;;;;;4915209;29;20206;-79
2021/06/13 16:43:23;;;;;;;0.30;0.30;;;20.00;82.50;;;;;;4925121;29;20694;-77
2021/06/13 16:45:53;;;;;;;0.30;0.30;;;20.00;82.10;;;;;;4934842;29;20724;-77
2021/06/13 16:48:22;;;;;;;0.30;0.30;;;19.90;82.90;;;;;;4927985;29;20710;-80
2021/06/13 16:50:51;;;;;;;0.30;0.30;;;20.00;82.90;;;;;;4927596;29;20616;-79
2021/06/13 16:53:19;;;;;;;0.30;0.30;;;20.20;81.40;;;;;;4938571;29;20595;-80
2021/06/13 16:55:47;;;;;;;0.30;0.30;;;20.30;81.80;;;;;;4929339;29;20269;-82
2021/06/13 16:58:15;;;;;;;0.60;0.60;;;20.60;80.50;;;;;;4937872;29;20198;-78
2021/06/13 17:00:43;;;;;;;0.90;0.90;;;20.80;80.50;;;;;;4934865;29;20202;-79
2021/06/13 17:03:12;;;;;;;0.55;0.55;;;21.30;79.80;;;;;;4938009;29;20265;-79
2021/06/13 17:05:40;;;;;;;0.30;0.30;;;21.40;78.40;;;;;;4935011;29;20278;-80
2021/06/13 17:08:08;;;;;;;0.30;0.30;;;21.50;77.50;;;;;;4939445;29;20210;-81
2021/06/13 17:10:36;;;;;;;0.30;0.30;;;21.30;78.10;;;;;;4945007;29;20234;-79
2021/06/13 17:13:04;;;;;;;0.30;0.30;;;21.50;77.40;;;;;;4940990;29;20207;-80
2021/06/13 17:15:33;;;;;;;0.30;0.30;;;21.90;77.70;;;;;;4937322;29;20641;-79
2021/06/13 17:18:01;;;;;;;0.30;0.30;;;22.50;76.10;;;;;;4937391;29;20206;-80